Time;durP1;ratioP1;P1;durP2;ratioP2;P2;SDS_P1;SDS_P2;PMS_P1;PMS_P2;Temp;Humidity;BMP_temperature;BMP_pressure;BME280_temperature;BME280_humidity;BME280_pressure;Samples;Min_cycle;Max_cycle;Signal;HPM_P1;HPM_P2
2022/03/03 00:00:15;;;;;;;21.25;13.07;;;;;;;0.32;61.26;101973.66;5029255;28;20037;-76
2022/03/03 00:02:43;;;;;;;19.02;12.85;;;;;;;0.31;60.84;101972.75;5011712;28;20623;-75
2022/03/03 00:05:09;;;;;;;15.75;11.60;;;;;;;0.30;60.93;101965.84;5013102;28;20033;-76
2022/03/03 00:07:35;;;;;;;23.52;12.85;;;;;;;0.23;62.15;101961.22;5012803;28;20032;-75
2022/03/03 00:10:04;;;;;;;17.35;13.70;;;;;;;0.25;61.31;101969.88;5030298;28;20025;-76
2022/03/03 00:12:30;;;;;;;21.80;13.45;;;;;;;0.21;61.62;101956.78;5008577;28;20068;-76
2022/03/03 00:14:55;;;;;;;18.52;13.00;;;;;;;0.18;61.67;101970.41;5012136;28;20438;-75
2022/03/03 00:17:24;;;;;;;21.20;14.32;;;;;;;0.18;62.27;101965.25;5028687;28;20433;-76
2022/03/03 00:19:52;;;;;;;20.20;13.23;;;;;;;0.16;62.15;101967.75;5033458;28;20045;-76
2022/03/03 00:22:18;;;;;;;19.75;12.65;;;;;;;0.09;62.89;101962.22;5028692;28;20037;-77
2022/03/03 00:24:44;;;;;;;20.27;12.98;;;;;;;0.05;62.95;101971.47;5000764;28;20516;-76
2022/03/03 00:27:09;;;;;;;20.38;12.90;;;;;;;0.04;62.61;101961.09;5013408;28;20029;-75
2022/03/03 00:29:35;;;;;;;22.35;14.73;;;;;;;0.01;62.80;101955.81;5011924;28;20091;-76
2022/03/03 00:32:00;;;;;;;21.00;14.13;;;;;;;-0.04;62.82;101956.47;5012508;28;20025;-76
2022/03/03 00:34:26;;;;;;;20.85;12.45;;;;;;;-0.09;63.00;101962.19;5029509;28;20049;-76
2022/03/03 00:36:54;;;;;;;19.88;13.90;;;;;;;-0.10;63.36;101966.47;4996109;28;20098;-76
2022/03/03 00:39:19;;;;;;;24.75;13.93;;;;;;;-0.17;62.85;101956.66;5029503;28;20041;-76
2022/03/03 00:41:45;;;;;;;20.80;13.98;;;;;;;-0.21;63.19;101953.03;5013198;28;20033;-76
2022/03/03 00:44:10;;;;;;;21.48;13.55;;;;;;;-0.26;63.40;101953.59;4997192;28;20048;-76
2022/03/03 00:46:41;;;;;;;27.02;13.63;;;;;;;-0.33;64.26;101954.09;5011766;28;20050;-76
2022/03/03 00:49:06;;;;;;;21.17;13.63;;;;;;;-0.35;64.26;101948.88;5028388;28;20033;-75
2022/03/03 00:51:32;;;;;;;21.23;14.05;;;;;;;-0.35;64.07;101951.44;5029447;28;20029;-76
2022/03/03 00:53:57;;;;;;;22.95;14.40;;;;;;;-0.33;64.11;101949.84;5028817;28;20025;-75
2022/03/03 00:56:26;;;;;;;21.50;13.35;;;;;;;-0.32;64.72;101950.72;5011209;28;20044;-76
2022/03/03 00:58:52;;;;;;;21.15;13.32;;;;;;;-0.31;64.68;101949.94;5032948;28;20473;-76
2022/03/03 01:01:18;;;;;;;22.58;14.65;;;;;;;-0.32;63.81;101936.16;5031916;28;20025;-76
2022/03/03 01:03:46;;;;;;;20.90;13.93;;;;;;;-0.33;63.91;101941.22;5014144;28;20045;-76
2022/03/03 01:06:13;;;;;;;18.42;13.70;;;;;;;-0.31;63.88;101948.22;5010373;28;20033;-76
2022/03/03 01:08:38;;;;;;;23.25;15.00;;;;;;;-0.32;64.25;101949.03;5033398;28;20026;-76
2022/03/03 01:11:05;;;;;;;25.40;13.93;;;;;;;-0.32;63.90;101943.00;5016469;28;20055;-76
2022/03/03 01:13:31;;;;;;;20.92;12.73;;;;;;;-0.32;63.60;101943.00;5032117;28;20065;-76
2022/03/03 01:15:56;;;;;;;20.80;14.13;;;;;;;-0.38;64.34;101939.28;5026840;28;20053;-75
2022/03/03 01:18:22;;;;;;;20.02;14.20;;;;;;;-0.41;63.99;101934.00;5026477;28;20045;-76
2022/03/03 01:20:49;;;;;;;20.58;12.63;;;;;;;-0.43;64.19;101945.03;5005090;28;20030;-76
2022/03/03 01:23:16;;;;;;;21.70;14.30;;;;;;;-0.49;64.35;101940.44;5013469;28;20037;-76
2022/03/03 01:25:42;;;;;;;19.38;13.23;;;;;;;-0.55;64.58;101937.56;5004304;28;20033;-76
2022/03/03 01:28:12;;;;;;;19.20;13.57;;;;;;;-0.61;64.97;101934.69;5011480;28;20175;-76
2022/03/03 01:30:40;;;;;;;21.48;12.75;;;;;;;-0.64;64.62;101934.53;5005219;28;20064;-76
2022/03/03 01:33:06;;;;;;;24.13;13.45;;;;;;;-0.66;64.88;101931.88;5027907;28;20541;-76
2022/03/03 01:35:33;;;;;;;21.55;12.70;;;;;;;-0.72;65.32;101924.72;5029296;28;20029;-76
2022/03/03 01:37:59;;;;;;;21.45;15.00;;;;;;;-0.78;66.05;101926.97;5032794;28;20083;-76
2022/03/03 01:40:25;;;;;;;25.05;14.05;;;;;;;-0.83;66.15;101917.22;5032124;28;20091;-76
2022/03/03 01:42:51;;;;;;;22.27;13.68;;;;;;;-0.90;66.28;101922.06;4996023;28;20065;-76
2022/03/03 01:45:16;;;;;;;20.38;13.20;;;;;;;-0.92;66.10;101915.06;5024347;28;20075;-76
2022/03/03 01:47:42;;;;;;;25.63;14.50;;;;;;;-0.98;66.15;101913.03;5014690;28;20065;-76
2022/03/03 01:50:10;;;;;;;22.40;14.63;;;;;;;-1.01;66.44;101909.44;4999717;28;20043;-76
2022/03/03 01:52:35;;;;;;;22.10;15.05;;;;;;;-1.06;66.20;101907.50;5015451;28;20039;-76
2022/03/03 01:55:01;;;;;;;23.15;14.32;;;;;;;-1.10;66.74;101904.69;5015165;28;20029;-76
2022/03/03 01:57:29;;;;;;;26.92;16.33;;;;;;;-1.13;67.39;101901.97;4996941;28;20375;-76
2022/03/03 01:59:54;;;;;;;19.63;12.93;;;;;;;-1.17;67.61;101894.88;5009610;28;20471;-76
2022/03/03 02:02:21;;;;;;;25.52;14.07;;;;;;;-1.24;67.67;101898.81;5014887;28;20093;-76
2022/03/03 02:04:49;;;;;;;29.70;15.48;;;;;;;-1.30;68.72;101908.78;5015701;28;20036;-76
2022/03/03 02:07:14;;;;;;;24.02;14.35;;;;;;;-1.41;68.20;101906.53;5015942;28;20056;-76
2022/03/03 02:09:41;;;;;;;23.85;14.82;;;;;;;-1.49;68.12;101907.78;5014529;28;20411;-76
2022/03/03 02:12:10;;;;;;;23.52;15.43;;;;;;;-1.63;69.21;101901.88;5009144;28;20033;-76
2022/03/03 02:14:50;;;;;;;33.05;17.67;;;;;;;-1.66;69.78;101903.41;5015608;28;20038;-76
2022/03/03 02:17:16;;;;;;;25.00;15.37;;;;;;;-1.70;69.54;101891.19;5027946;28;20058;-76
2022/03/03 02:19:42;;;;;;;30.95;15.93;;;;;;;-1.73;69.74;101891.03;5030004;28;20069;-76
2022/03/03 02:22:09;;;;;;;26.70;14.93;;;;;;;-1.80;69.15;101893.22;5031885;28;20158;-76
2022/03/03 02:24:35;;;;;;;30.92;15.32;;;;;;;-1.88;69.27;101891.03;5031077;28;20382;-76
2022/03/03 02:27:02;;;;;;;24.77;14.82;;;;;;;-1.99;70.07;101898.16;5014875;28;20025;-76
2022/03/03 02:29:30;;;;;;;22.95;15.25;;;;;;;-2.05;71.47;101901.25;5013647;28;20482;-76
2022/03/03 02:31:56;;;;;;;24.08;15.38;;;;;;;-2.13;71.55;101895.69;5028803;28;20036;-76
2022/03/03 02:34:22;;;;;;;23.92;15.82;;;;;;;-2.10;72.21;101882.13;4995407;28;20029;-77
2022/03/03 02:36:47;;;;;;;22.20;14.95;;;;;;;-2.04;71.61;101884.16;5014654;28;20039;-77
2022/03/03 02:39:13;;;;;;;22.90;15.02;;;;;;;-2.00;71.36;101886.97;5031315;28;20033;-76
2022/03/03 02:41:41;;;;;;;23.13;15.60;;;;;;;-1.96;70.55;101885.47;5013811;28;20130;-76
2022/03/03 02:44:06;;;;;;;23.52;15.40;;;;;;;-1.94;70.56;101889.00;5010557;28;20030;-76
2022/03/03 02:46:32;;;;;;;23.63;14.00;;;;;;;-1.87;70.27;101882.53;4997632;28;20036;-76
2022/03/03 02:48:57;;;;;;;23.65;14.85;;;;;;;-1.83;69.86;101885.34;5014455;28;20120;-76
2022/03/03 02:51:24;;;;;;;21.88;14.85;;;;;;;-1.82;69.79;101873.41;5009751;28;20037;-77
2022/03/03 02:53:49;;;;;;;24.88;15.32;;;;;;;-1.82;69.88;101870.84;5029082;28;20124;-76
2022/03/03 02:56:15;;;;;;;27.60;15.75;;;;;;;-1.84;70.07;101868.19;4997334;28;20462;-76
2022/03/03 02:58:41;;;;;;;23.75;16.42;;;;;;;-1.82;70.05;101871.72;5013900;28;20136;-76
2022/03/03 03:01:10;;;;;;;25.25;14.63;;;;;;;-1.82;69.94;101870.84;5027530;28;20024;-76
2022/03/03 03:03:41;;;;;;;26.88;14.32;;;;;;;-1.80;70.10;101876.94;5012824;28;20040;-76
2022/03/03 03:06:06;;;;;;;25.08;15.90;;;;;;;-1.82;70.64;101881.13;5015250;28;20056;-76
2022/03/03 03:08:31;;;;;;;25.95;17.00;;;;;;;-1.84;70.89;101873.34;5028697;28;20385;-76
2022/03/03 03:10:59;;;;;;;25.67;14.77;;;;;;;-1.87;70.94;101875.69;5012848;28;20076;-76
2022/03/03 03:13:25;;;;;;;25.13;15.20;;;;;;;-1.94;71.38;101871.94;4998324;28;20041;-76
2022/03/03 03:15:50;;;;;;;22.30;14.55;;;;;;;-2.00;71.54;101874.13;5014009;28;20025;-76
2022/03/03 03:18:18;;;;;;;20.70;14.23;;;;;;;-2.02;71.95;101880.00;5022618;28;20064;-76
2022/03/03 03:20:46;;;;;;;25.50;16.02;;;;;;;-2.09;71.00;101876.19;5030842;28;20021;-75
2022/03/03 03:23:14;;;;;;;27.58;16.38;;;;;;;-2.16;70.73;101874.09;5029460;28;20540;-75
2022/03/03 03:25:43;;;;;;;30.20;16.65;;;;;;;-2.23;70.81;101866.84;5013597;28;20036;-75
2022/03/03 03:28:10;;;;;;;21.38;14.85;;;;;;;-2.36;71.01;101858.41;5014155;28;20025;-75
2022/03/03 03:30:36;;;;;;;23.13;13.93;;;;;;;-2.44;71.47;101864.81;5030374;28;20025;-76
2022/03/03 03:33:02;;;;;;;27.65;16.00;;;;;;;-2.52;72.27;101869.50;5029648;28;20342;-76
2022/03/03 03:35:27;;;;;;;31.05;15.40;;;;;;;-2.63;72.33;101861.19;5029741;28;20052;-76
2022/03/03 03:37:58;;;;;;;24.17;14.23;;;;;;;-2.70;72.96;101853.00;5029300;28;20025;-76
2022/03/03 03:40:25;;;;;;;27.95;15.68;;;;;;;-2.73;73.53;101856.31;5023282;28;20393;-76
2022/03/03 03:42:56;;;;;;;23.73;15.52;;;;;;;-2.75;74.57;101864.72;5029731;28;20068;-76
2022/03/03 03:45:21;;;;;;;23.20;14.90;;;;;;;-2.82;74.22;101854.06;5013886;28;20079;-76
2022/03/03 03:47:47;;;;;;;24.17;15.95;;;;;;;-2.86;74.19;101851.22;5018079;28;20034;-76
2022/03/03 03:50:14;;;;;;;23.63;14.00;;;;;;;-2.92;74.40;101849.19;5010517;28;20401;-76
2022/03/03 03:52:41;;;;;;;26.58;15.88;;;;;;;-2.96;74.65;101844.66;5029762;28;20025;-76
2022/03/03 03:55:08;;;;;;;27.25;16.05;;;;;;;-2.97;75.62;101838.66;5028866;28;20033;-75
2022/03/03 03:57:39;;;;;;;26.65;16.20;;;;;;;-2.98;75.59;101842.00;5012528;28;20123;-75
2022/03/03 04:00:16;;;;;;;23.73;15.25;;;;;;;-2.96;75.17;101849.81;5010426;28;20038;-75
2022/03/03 04:02:46;;;;;;;24.10;14.30;;;;;;;-2.92;75.49;101856.00;5044129;28;20086;-76
2022/03/03 04:05:13;;;;;;;28.20;16.88;;;;;;;-2.85;75.38;101856.44;5007604;28;20116;-75
2022/03/03 04:07:40;;;;;;;24.63;16.95;;;;;;;-2.80;75.20;101847.34;4995331;28;20032;-76
2022/03/03 04:10:06;;;;;;;25.50;16.38;;;;;;;-2.76;74.96;101843.28;5029182;28;20040;-75
2022/03/03 04:12:33;;;;;;;25.15;16.25;;;;;;;-2.76;74.68;101837.28;4993288;28;20037;-75
2022/03/03 04:14:59;;;;;;;30.20;16.75;;;;;;;-2.78;74.66;101839.75;5028602;28;20026;-76
2022/03/03 04:17:24;;;;;;;24.75;17.02;;;;;;;-2.83;74.30;101831.78;4994392;28;20526;-75
2022/03/03 04:19:50;;;;;;;31.95;17.55;;;;;;;-2.85;74.97;101833.38;5005145;28;20137;-75
2022/03/03 04:22:15;;;;;;;28.55;16.73;;;;;;;-2.92;74.75;101831.22;5010039;28;20037;-75
2022/03/03 04:24:43;;;;;;;25.17;16.75;;;;;;;-2.97;74.48;101827.53;5008993;28;20114;-75
2022/03/03 04:27:09;;;;;;;23.83;15.40;;;;;;;-3.04;74.41;101826.28;5029206;28;20022;-75
2022/03/03 04:29:37;;;;;;;25.95;16.30;;;;;;;-3.08;73.47;101828.56;5011632;28;20041;-75
2022/03/03 04:32:06;;;;;;;30.45;16.15;;;;;;;-3.12;73.66;101827.50;5010658;28;20065;-75
2022/03/03 04:34:31;;;;;;;21.63;14.30;;;;;;;-3.20;74.17;101829.59;5016051;28;20034;-76
2022/03/03 04:36:56;;;;;;;21.60;15.20;;;;;;;-3.27;74.41;101829.16;5033175;28;20044;-76
2022/03/03 04:39:22;;;;;;;26.75;15.40;;;;;;;-3.33;74.47;101824.53;5016901;28;20041;-75
2022/03/03 04:41:47;;;;;;;22.40;14.48;;;;;;;-3.35;75.31;101823.53;4999862;28;20697;-75
2022/03/03 04:44:13;;;;;;;24.13;16.17;;;;;;;-3.36;76.12;101811.50;5015603;28;20523;-76
2022/03/03 04:46:39;;;;;;;32.10;16.02;;;;;;;-3.35;75.99;101805.59;5022468;28;20034;-76
2022/03/03 04:49:07;;;;;;;22.13;15.70;;;;;;;-3.35;75.79;101811.63;5031263;28;20033;-75
2022/03/03 04:51:36;;;;;;;26.25;16.52;;;;;;;-3.32;76.18;101808.34;5029304;28;20044;-75
2022/03/03 04:54:05;;;;;;;27.20;17.35;;;;;;;-3.33;76.41;101810.03;5028116;28;20487;-75
2022/03/03 04:56:31;;;;;;;26.92;15.77;;;;;;;-3.32;76.72;101810.91;5031735;28;20060;-76
2022/03/03 04:58:59;;;;;;;25.77;14.55;;;;;;;-3.33;76.62;101801.47;5016277;28;20141;-75
2022/03/03 05:01:24;;;;;;;28.40;16.38;;;;;;;-3.33;76.65;101802.34;5030588;28;20029;-75
2022/03/03 05:03:50;;;;;;;25.52;16.95;;;;;;;-3.29;76.93;101795.72;5013934;28;20106;-75
2022/03/03 05:06:17;;;;;;;27.40;16.85;;;;;;;-3.25;76.85;101799.34;5028831;28;20245;-75
2022/03/03 05:08:43;;;;;;;25.65;16.85;;;;;;;-3.20;76.24;101808.22;5014672;28;20461;-75
2022/03/03 05:11:08;;;;;;;29.85;17.40;;;;;;;-3.18;76.80;101806.63;5007752;28;20022;-75
2022/03/03 05:13:34;;;;;;;27.65;17.08;;;;;;;-3.13;76.33;101806.09;5032017;28;20041;-75
2022/03/03 05:16:00;;;;;;;25.80;17.02;;;;;;;-3.08;76.41;101810.63;4998869;28;20034;-75
2022/03/03 05:18:25;;;;;;;31.17;17.67;;;;;;;-3.07;76.02;101807.28;5032455;28;20053;-75
2022/03/03 05:20:51;;;;;;;49.72;13.82;;;;;;;-3.02;75.57;101813.53;4997565;28;20045;-75
2022/03/03 05:23:16;;;;;;;27.27;17.27;;;;;;;-2.98;75.71;101807.81;5014647;28;20073;-75
2022/03/03 05:25:41;;;;;;;24.58;15.05;;;;;;;-2.95;75.38;101810.53;5015159;28;20037;-75
2022/03/03 05:28:07;;;;;;;21.50;15.13;;;;;;;-2.95;74.98;101802.84;5015253;28;20029;-75
2022/03/03 05:30:35;;;;;;;28.17;15.57;;;;;;;-2.97;74.55;101813.03;5014284;28;20056;-75
2022/03/03 05:33:03;;;;;;;26.65;16.90;;;;;;;-3.03;74.56;101814.31;5014089;28;20589;-75
2022/03/03 05:35:28;;;;;;;30.00;16.85;;;;;;;-3.09;75.25;101814.84;5016359;28;20045;-75
2022/03/03 05:37:59;;;;;;;32.58;18.02;;;;;;;-3.12;75.22;101809.53;5016619;28;20037;-75
2022/03/03 05:40:30;;;;;;;29.33;16.00;;;;;;;-3.17;75.68;101816.09;5032348;28;20063;-75
2022/03/03 05:42:55;;;;;;;;;;;;;;;-3.15;74.11;101819.63;5031789;28;20029;-75
2022/03/03 05:45:21;;;;;;;29.50;16.50;;;;;;;-3.14;75.56;101814.56;5029015;28;19963;-74
2022/03/03 05:47:48;;;;;;;26.35;16.38;;;;;;;-3.17;75.50;101813.53;5014137;28;20099;-75
2022/03/03 05:50:16;;;;;;;26.10;15.60;;;;;;;-3.20;75.62;101811.66;5013949;28;20496;-75
2022/03/03 05:52:41;;;;;;;28.92;16.15;;;;;;;-3.26;75.69;101808.75;5030464;28;20022;-75
2022/03/03 05:55:10;;;;;;;23.67;15.80;;;;;;;-3.32;75.27;101803.22;5012485;28;20504;-75
2022/03/03 05:57:42;;;;;;;29.35;17.35;;;;;;;-3.34;75.54;101804.81;5014764;28;20470;-75
2022/03/03 06:00:12;;;;;;;28.10;16.42;;;;;;;-3.36;76.28;101801.25;5015105;28;20029;-75
2022/03/03 06:02:41;;;;;;;27.30;17.00;;;;;;;-3.35;77.28;101803.03;5031154;28;20436;-75
2022/03/03 06:05:08;;;;;;;29.45;17.02;;;;;;;-3.32;76.57;101811.81;5007346;28;20292;-75
2022/03/03 06:07:44;;;;;;;25.48;16.80;;;;;;;-3.34;76.99;101815.06;5015483;28;20500;-75
2022/03/03 06:10:11;;;;;;;26.50;16.35;;;;;;;-3.31;77.07;101810.13;5031429;28;20026;-75
2022/03/03 06:12:47;;;;;;;31.95;16.83;;;;;;;-3.31;76.90;101808.44;5013508;28;20132;-75
2022/03/03 06:15:13;;;;;;;29.90;17.23;;;;;;;-3.29;76.83;101805.09;5030813;28;20026;-75
2022/03/03 06:17:42;;;;;;;27.38;16.25;;;;;;;-3.27;77.83;101813.78;4999897;28;20053;-75
2022/03/03 06:20:08;;;;;;;28.92;16.20;;;;;;;-3.26;77.05;101816.44;5025842;28;20450;-75
2022/03/03 06:22:34;;;;;;;24.98;16.35;;;;;;;-3.25;76.95;101809.63;5012295;28;20049;-75
2022/03/03 06:25:00;;;;;;;26.90;16.88;;;;;;;-3.20;76.86;101803.09;5030954;28;20100;-75
2022/03/03 06:27:26;;;;;;;30.30;17.48;;;;;;;-3.16;76.53;101808.50;5014488;28;20083;-75
2022/03/03 06:29:54;;;;;;;27.17;18.08;;;;;;;-3.14;76.61;101818.84;5031721;28;20049;-75
2022/03/03 06:32:20;;;;;;;26.15;17.38;;;;;;;-3.14;75.95;101817.16;5030380;28;20029;-75
2022/03/03 06:34:45;;;;;;;27.73;15.45;;;;;;;-3.09;75.50;101816.53;5014536;28;20623;-75
2022/03/03 06:37:11;;;;;;;39.63;16.13;;;;;;;-3.04;75.40;101810.00;5013713;28;20116;-75
2022/03/03 06:39:36;;;;;;;23.60;16.17;;;;;;;-3.02;74.89;101818.66;5015111;28;20045;-75
2022/03/03 06:42:03;;;;;;;24.27;16.38;;;;;;;-3.01;75.00;101820.44;5019279;28;20028;-75
2022/03/03 06:44:28;;;;;;;30.15;17.40;;;;;;;-2.99;75.58;101822.31;5028657;28;20032;-75
2022/03/03 06:46:57;;;;;;;32.05;16.25;;;;;;;-2.99;75.71;101821.41;5030403;28;20029;-75
2022/03/03 06:49:23;;;;;;;26.95;17.27;;;;;;;-2.94;76.22;101822.56;5015708;28;20025;-75
2022/03/03 06:51:49;;;;;;;28.48;17.42;;;;;;;-2.78;76.82;101824.34;5030800;28;20029;-75
2022/03/03 06:54:21;;;;;;;29.80;19.55;;;;;;;-2.49;76.05;101827.72;5030913;28;20120;-75
2022/03/03 06:56:48;;;;;;;29.60;16.85;;;;;;;-1.87;75.38;101832.03;5013994;28;20033;-75
2022/03/03 06:59:15;;;;;;;28.27;17.70;;;;;;;-1.28;74.03;101824.88;5037210;28;20468;-75
2022/03/03 07:01:42;;;;;;;30.75;18.02;;;;;;;-0.57;73.16;101825.91;5025352;28;20094;-75
2022/03/03 07:04:10;;;;;;;30.55;17.63;;;;;;;0.09;70.39;101833.34;5013187;28;20045;-75
2022/03/03 07:06:36;;;;;;;32.03;17.63;;;;;;;0.68;69.28;101827.44;5031650;28;20576;-75
2022/03/03 07:09:03;;;;;;;34.47;19.30;;;;;;;1.68;65.66;101830.81;5006159;28;20052;-75
2022/03/03 07:11:29;;;;;;;26.02;16.08;;;;;;;2.79;61.30;101831.56;4994248;28;20034;-75
2022/03/03 07:13:58;;;;;;;21.17;15.43;;;;;;;4.14;58.67;101835.19;5030903;28;20017;-75
2022/03/03 07:16:29;;;;;;;22.50;15.32;;;;;;;5.25;56.91;101833.97;5029751;28;20120;-75
2022/03/03 07:19:02;;;;;;;25.75;15.45;;;;;;;6.21;52.04;101821.56;5027826;28;20057;-75
2022/03/03 07:21:56;;;;;;;26.70;16.63;;;;;;;7.22;51.70;101822.66;5030505;28;20120;-75
2022/03/03 07:24:33;;;;;;;25.20;16.13;;;;;;;8.43;51.25;101829.72;5029258;28;20033;-76
2022/03/03 07:27:08;;;;;;;23.20;15.95;;;;;;;9.41;46.65;101836.94;5015387;28;20504;-76
2022/03/03 07:29:34;;;;;;;24.38;16.55;;;;;;;10.21;44.05;101833.19;5030004;28;20156;-76
2022/03/03 07:32:07;;;;;;;23.98;17.52;;;;;;;11.20;42.89;101830.91;5012863;28;20390;-76
2022/03/03 07:34:36;;;;;;;30.60;17.67;;;;;;;11.53;38.91;101826.56;5029729;28;20029;-76
2022/03/03 07:37:28;;;;;;;25.70;17.17;;;;;;;12.44;42.53;101829.09;5030775;28;20080;-76
2022/03/03 07:40:01;;;;;;;24.27;16.90;;;;;;;12.89;37.32;101830.63;5025694;28;20434;-77
2022/03/03 07:42:26;;;;;;;26.23;17.05;;;;;;;13.53;36.36;101826.69;5029488;28;20033;-76
2022/03/03 07:44:52;;;;;;;25.05;17.98;;;;;;;13.66;33.96;101836.25;4997347;28;20048;-77
2022/03/03 07:47:21;;;;;;;26.42;18.63;;;;;;;13.79;33.24;101837.03;5029602;28;20021;-77
2022/03/03 07:49:47;;;;;;;28.27;18.70;;;;;;;14.30;31.54;101820.66;5031915;28;20068;-77
2022/03/03 07:52:12;;;;;;;24.52;18.80;;;;;;;14.56;31.97;101830.88;5013878;28;20049;-77
2022/03/03 07:54:38;;;;;;;27.20;19.05;;;;;;;15.06;31.43;101836.41;5012800;28;20147;-77
2022/03/03 07:57:07;;;;;;;24.48;18.58;;;;;;;15.54;31.02;101837.44;4996644;28;20044;-77
2022/03/03 07:59:34;;;;;;;23.15;18.13;;;;;;;15.73;30.17;101838.00;5028245;28;20025;-77
2022/03/03 08:02:04;;;;;;;25.33;18.25;;;;;;;15.69;29.56;101841.63;5028683;28;20040;-77
2022/03/03 08:04:31;;;;;;;23.60;18.73;;;;;;;16.04;30.33;101842.78;5030946;28;20033;-77
2022/03/03 08:07:07;;;;;;;24.05;19.25;;;;;;;16.23;31.45;101844.19;5012615;28;20462;-77
2022/03/03 08:09:34;;;;;;;23.90;17.58;;;;;;;16.37;28.31;101850.97;5029876;28;20026;-77
2022/03/03 08:12:07;;;;;;;28.50;19.88;;;;;;;17.13;29.45;101844.97;5023013;28;20437;-77
2022/03/03 08:14:34;;;;;;;25.30;19.20;;;;;;;17.84;27.70;101851.16;5012534;28;20436;-77
2022/03/03 08:16:59;;;;;;;22.80;19.83;;;;;;;18.65;26.89;101839.25;5013033;28;20147;-77
2022/03/03 08:19:25;;;;;;;22.90;20.38;;;;;;;19.25;25.93;101842.75;5030164;28;20049;-77
2022/03/03 08:21:51;;;;;;;22.20;17.80;;;;;;;19.76;25.27;101846.34;5028977;28;20033;-77
2022/03/03 08:24:19;;;;;;;31.25;26.05;;;;;;;19.86;24.61;101836.31;5013881;28;20033;-77
2022/03/03 08:26:45;;;;;;;32.75;29.23;;;;;;;20.11;24.99;101840.75;5029084;28;20104;-77
2022/03/03 08:29:12;;;;;;;25.70;23.05;;;;;;;20.28;23.26;101842.81;5029277;28;20112;-78
2022/03/03 08:31:47;;;;;;;23.23;19.15;;;;;;;20.46;24.76;101827.94;5028145;28;20025;-77
2022/03/03 08:34:28;;;;;;;31.27;27.35;;;;;;;20.54;24.95;101836.50;5030350;28;20026;-77
2022/03/03 08:37:00;;;;;;;25.75;18.83;;;;;;;20.28;23.53;101845.47;5029369;28;20438;-77
2022/03/03 08:39:28;;;;;;;23.42;16.55;;;;;;;19.95;22.45;101835.97;5013942;28;20640;-77
2022/03/03 08:42:01;;;;;;;20.27;16.48;;;;;;;20.32;23.84;101841.78;5013257;28;20129;-77
2022/03/03 08:44:32;;;;;;;18.88;14.98;;;;;;;20.43;23.53;101837.78;5026934;28;20405;-77
2022/03/03 08:47:16;;;;;;;28.83;22.25;;;;;;;20.70;23.84;101835.03;5020108;28;20531;-77
2022/03/03 08:49:44;;;;;;;17.15;15.35;;;;;;;20.76;23.19;101839.25;5001282;28;20033;-77
2022/03/03 08:52:11;;;;;;;18.95;14.40;;;;;;;20.55;22.02;101846.22;5007518;28;20022;-78
2022/03/03 08:54:37;;;;;;;17.23;14.10;;;;;;;20.33;21.55;101841.72;5012456;28;20045;-77
2022/03/03 08:57:02;;;;;;;17.27;15.48;;;;;;;20.32;21.09;101837.31;5025619;28;20030;-77
2022/03/03 08:59:28;;;;;;;18.90;15.43;;;;;;;19.80;21.71;101833.88;5012694;28;20033;-78
2022/03/03 09:01:54;;;;;;;17.80;15.10;;;;;;;20.05;21.21;101829.38;5012803;28;20049;-77
2022/03/03 09:04:22;;;;;;;20.85;16.85;;;;;;;20.01;21.78;101829.56;5012614;28;20033;-78
2022/03/03 09:06:47;;;;;;;21.10;15.75;;;;;;;20.35;21.71;101829.19;5013084;28;20384;-79
2022/03/03 09:09:13;;;;;;;17.58;14.63;;;;;;;20.42;21.11;101830.72;4996460;28;20036;-77
2022/03/03 09:11:39;;;;;;;21.80;15.48;;;;;;;20.15;21.17;101832.59;5015279;28;20481;-75
2022/03/03 09:14:07;;;;;;;17.60;15.52;;;;;;;19.67;20.93;101833.38;5010733;28;20034;-76
2022/03/03 09:16:33;;;;;;;17.63;14.88;;;;;;;19.53;22.01;101826.72;5028668;28;20182;-76
2022/03/03 09:19:01;;;;;;;19.50;13.88;;;;;;;19.17;22.17;101832.34;5007943;28;20050;-76
2022/03/03 09:21:28;;;;;;;20.23;16.33;;;;;;;19.68;22.76;101832.44;5016542;28;20034;-76
2022/03/03 09:23:54;;;;;;;18.38;14.57;;;;;;;19.39;21.80;101827.22;5032956;28;20182;-76
2022/03/03 09:26:20;;;;;;;19.50;16.88;;;;;;;19.65;20.93;101832.56;5014346;28;20028;-76
2022/03/03 09:28:46;;;;;;;27.25;17.85;;;;;;;18.62;23.13;101823.38;5011835;28;20038;-76
2022/03/03 09:31:11;;;;;;;20.40;16.02;;;;;;;16.61;24.03;101820.50;5016347;28;20025;-76
2022/03/03 09:33:37;;;;;;;19.98;14.77;;;;;;;15.17;26.79;101825.72;5011694;28;20083;-75
2022/03/03 09:36:02;;;;;;;19.05;15.48;;;;;;;13.88;28.08;101816.72;4994203;28;20485;-77
2022/03/03 09:38:30;;;;;;;21.40;16.58;;;;;;;12.63;30.95;101816.72;4999868;28;20182;-76
2022/03/03 09:40:56;;;;;;;24.77;17.52;;;;;;;11.96;32.33;101825.69;5015703;28;20119;-76
2022/03/03 09:43:25;;;;;;;19.33;14.65;;;;;;;11.23;34.12;101819.56;5014628;28;20041;-75
2022/03/03 09:45:54;;;;;;;19.45;15.55;;;;;;;10.87;34.14;101823.84;5014005;28;20546;-76
2022/03/03 09:48:22;;;;;;;21.17;14.48;;;;;;;10.76;36.11;101821.22;5011152;28;20029;-76
2022/03/03 09:50:47;;;;;;;23.70;16.30;;;;;;;10.88;35.01;101816.00;5032828;28;20498;-76
2022/03/03 09:53:18;;;;;;;22.08;14.15;;;;;;;12.12;33.35;101816.94;5016299;28;20601;-76
2022/03/03 09:55:46;;;;;;;25.55;16.40;;;;;;;14.08;30.60;101817.41;5016273;28;20091;-75
2022/03/03 09:58:12;;;;;;;22.85;16.63;;;;;;;16.39;29.15;101809.47;5032299;28;20033;-75
2022/03/03 10:00:40;;;;;;;19.40;14.90;;;;;;;18.10;26.28;101815.16;5032953;28;20079;-77
2022/03/03 10:03:10;;;;;;;17.25;14.63;;;;;;;19.02;23.37;101809.81;5015426;28;20447;-76
2022/03/03 10:05:42;;;;;;;17.38;13.38;;;;;;;19.55;21.68;101811.63;5032929;28;20432;-78
2022/03/03 10:08:10;;;;;;;18.08;14.85;;;;;;;20.16;22.26;101806.88;5033605;28;20449;-76
2022/03/03 10:10:39;;;;;;;16.98;13.45;;;;;;;20.02;21.90;101816.19;5031646;28;20113;-76
2022/03/03 10:13:05;;;;;;;20.73;14.90;;;;;;;19.75;21.42;101815.34;5032568;28;20466;-79
2022/03/03 10:15:32;;;;;;;15.50;13.98;;;;;;;20.16;20.52;101798.88;5016063;28;20481;-76
2022/03/03 10:18:04;;;;;;;20.38;14.98;;;;;;;19.45;21.14;101809.31;5011767;28;20085;-75
2022/03/03 10:20:38;;;;;;;17.55;14.55;;;;;;;18.73;21.66;101804.50;5030829;28;20037;-76
2022/03/03 10:23:07;;;;;;;21.73;14.02;;;;;;;19.41;23.00;101797.03;5030938;28;20025;-77
2022/03/03 10:25:39;;;;;;;17.95;13.57;;;;;;;20.28;20.57;101794.91;5013006;28;20056;-75
2022/03/03 10:28:14;;;;;;;20.70;15.98;;;;;;;21.33;20.34;101806.78;5028158;28;20094;-75
2022/03/03 10:30:49;;;;;;;17.15;14.70;;;;;;;22.19;18.67;101802.22;5031778;28;20029;-78
2022/03/03 10:33:17;;;;;;;18.02;14.10;;;;;;;22.74;17.50;101801.47;5031590;28;20037;-78
2022/03/03 10:35:57;;;;;;;15.77;13.27;;;;;;;22.86;19.39;101816.03;5015425;28;20068;-77
2022/03/03 10:38:22;;;;;;;;;;;;;;;22.64;19.23;101795.69;5031676;28;20075;-77
2022/03/03 10:40:48;;;;;;;16.27;13.25;;;;;;;20.94;19.59;101803.88;5032155;28;19909;-76
2022/03/03 10:43:13;;;;;;;19.17;14.63;;;;;;;20.38;20.06;101802.47;4998954;28;20033;-78
2022/03/03 10:46:02;;;;;;;15.23;13.35;;;;;;;20.08;20.64;101802.69;5014966;28;20390;-76
2022/03/03 10:48:28;;;;;;;21.20;14.63;;;;;;;21.01;20.45;101801.00;5014846;28;20092;-76
2022/03/03 10:50:55;;;;;;;17.90;15.40;;;;;;;22.01;19.98;101793.22;5031175;28;20113;-76
2022/03/03 10:53:25;;;;;;;15.48;13.88;;;;;;;23.10;18.34;101795.25;5013780;28;20100;-76
2022/03/03 10:56:08;;;;;;;16.48;14.23;;;;;;;24.39;17.50;101787.72;5030915;28;20095;-80
2022/03/03 10:58:44;;;;;;;19.98;14.13;;;;;;;25.39;17.83;101794.63;5031035;28;20029;-76
2022/03/03 11:01:09;;;;;;;15.40;12.75;;;;;;;25.38;14.70;101798.25;5023891;28;20045;-77
2022/03/03 11:03:38;;;;;;;19.08;13.45;;;;;;;24.81;15.44;101797.03;5014040;28;20041;-78
2022/03/03 11:06:04;;;;;;;14.00;11.35;;;;;;;24.39;15.84;101793.97;5030544;28;20454;-78
2022/03/03 11:08:30;;;;;;;16.13;13.30;;;;;;;23.76;15.78;101794.63;4998455;28;20091;-77
2022/03/03 11:10:56;;;;;;;15.63;12.43;;;;;;;24.04;16.82;101796.72;4998646;28;20116;-78